sensor_id;sensor_type;location;lat;lon;timestamp;temperature;humidity
360;DHT22;168;48.872;9.226;2023-05-10T00:00:26;15.30;80.20
360;DHT22;168;48.872;9.226;2023-05-10T00:02:53;15.30;80.30
360;DHT22;168;48.872;9.226;2023-05-10T00:05:20;15.20;80.70
360;DHT22;168;48.872;9.226;2023-05-10T00:07:48;15.10;81.70
360;DHT22;168;48.872;9.226;2023-05-10T00:10:15;14.90;82.00
360;DHT22;168;48.872;9.226;2023-05-10T00:12:42;14.70;85.00
360;DHT22;168;48.872;9.226;2023-05-10T00:15:10;14.40;85.00
360;DHT22;168;48.872;9.226;2023-05-10T00:17:39;14.20;84.20
360;DHT22;168;48.872;9.226;2023-05-10T00:20:07;14.10;83.10
360;DHT22;168;48.872;9.226;2023-05-10T00:22:35;14.00;82.50
360;DHT22;168;48.872;9.226;2023-05-10T00:25:02;13.90;81.00
360;DHT22;168;48.872;9.226;2023-05-10T00:27:30;13.90;80.80
360;DHT22;168;48.872;9.226;2023-05-10T00:29:57;13.90;80.50
360;DHT22;168;48.872;9.226;2023-05-10T00:32:24;13.90;80.60
360;DHT22;168;48.872;9.226;2023-05-10T00:34:53;13.80;80.50
360;DHT22;168;48.872;9.226;2023-05-10T00:37:20;13.80;81.00
360;DHT22;168;48.872;9.226;2023-05-10T00:39:48;13.70;80.50
360;DHT22;168;48.872;9.226;2023-05-10T00:42:15;13.70;80.00
360;DHT22;168;48.872;9.226;2023-05-10T00:44:42;13.60;79.70
360;DHT22;168;48.872;9.226;2023-05-10T00:47:10;13.60;79.60
360;DHT22;168;48.872;9.226;2023-05-10T00:49:38;13.60;79.10
360;DHT22;168;48.872;9.226;2023-05-10T00:52:06;13.50;78.60
360;DHT22;168;48.872;9.226;2023-05-10T00:54:34;13.50;77.60
360;DHT22;168;48.872;9.226;2023-05-10T00:57:01;13.50;78.10
360;DHT22;168;48.872;9.226;2023-05-10T00:59:29;13.50;78.10
360;DHT22;168;48.872;9.226;2023-05-10T01:01:57;13.50;77.60
360;DHT22;168;48.872;9.226;2023-05-10T01:04:25;13.50;77.60
360;DHT22;168;48.872;9.226;2023-05-10T01:06:53;13.50;77.00
360;DHT22;168;48.872;9.226;2023-05-10T01:09:22;13.50;77.30
360;DHT22;168;48.872;9.226;2023-05-10T01:11:51;13.50;77.00
360;DHT22;168;48.872;9.226;2023-05-10T01:14:19;13.60;78.30
360;DHT22;168;48.872;9.226;2023-05-10T01:16:48;13.60;78.80
360;DHT22;168;48.872;9.226;2023-05-10T01:19:19;13.60;78.60
360;DHT22;168;48.872;9.226;2023-05-10T01:21:53;13.60;78.50
360;DHT22;168;48.872;9.226;2023-05-10T01:28:08;13.60;79.50
360;DHT22;168;48.872;9.226;2023-05-10T01:31:08;13.50;80.50
360;DHT22;168;48.872;9.226;2023-05-10T01:33:47;13.50;80.90
360;DHT22;168;48.872;9.226;2023-05-10T01:36:23;13.50;81.70
360;DHT22;168;48.872;9.226;2023-05-10T01:38:59;13.50;81.00
360;DHT22;168;48.872;9.226;2023-05-10T01:41:43;13.50;81.80
360;DHT22;168;48.872;9.226;2023-05-10T01:44:18;13.50;82.30
360;DHT22;168;48.872;9.226;2023-05-10T01:46:52;13.50;81.80
360;DHT22;168;48.872;9.226;2023-05-10T01:49:24;13.60;83.30
360;DHT22;168;48.872;9.226;2023-05-10T01:51:53;13.60;82.40
360;DHT22;168;48.872;9.226;2023-05-10T01:54:22;13.60;82.40
360;DHT22;168;48.872;9.226;2023-05-10T01:56:55;13.60;82.00
360;DHT22;168;48.872;9.226;2023-05-10T01:59:28;13.60;82.90
360;DHT22;168;48.872;9.226;2023-05-10T02:01:58;13.60;83.30
360;DHT22;168;48.872;9.226;2023-05-10T02:04:28;13.60;82.50
360;DHT22;168;48.872;9.226;2023-05-10T02:06:56;13.50;82.50
360;DHT22;168;48.872;9.226;2023-05-10T02:09:25;13.60;82.70
360;DHT22;168;48.872;9.226;2023-05-10T02:11:55;13.60;82.50
360;DHT22;168;48.872;9.226;2023-05-10T02:14:26;13.70;83.40
360;DHT22;168;48.872;9.226;2023-05-10T02:16:55;13.70;84.20
360;DHT22;168;48.872;9.226;2023-05-10T02:19:23;13.70;84.40
360;DHT22;168;48.872;9.226;2023-05-10T02:21:52;13.70;83.90
360;DHT22;168;48.872;9.226;2023-05-10T02:24:21;13.70;84.40
360;DHT22;168;48.872;9.226;2023-05-10T02:26:51;13.70;84.40
360;DHT22;168;48.872;9.226;2023-05-10T02:29:21;13.80;84.70
360;DHT22;168;48.872;9.226;2023-05-10T02:31:49;13.80;85.90
360;DHT22;168;48.872;9.226;2023-05-10T02:34:19;13.70;85.20
360;DHT22;168;48.872;9.226;2023-05-10T02:36:48;13.70;85.20
360;DHT22;168;48.872;9.226;2023-05-10T02:39:19;13.70;84.80
360;DHT22;168;48.872;9.226;2023-05-10T02:41:47;13.70;84.70
360;DHT22;168;48.872;9.226;2023-05-10T02:44:16;13.80;85.00
360;DHT22;168;48.872;9.226;2023-05-10T02:46:45;13.80;85.30
360;DHT22;168;48.872;9.226;2023-05-10T02:49:12;13.70;84.60
360;DHT22;168;48.872;9.226;2023-05-10T02:51:43;13.80;85.40
360;DHT22;168;48.872;9.226;2023-05-10T02:54:15;13.70;84.70
360;DHT22;168;48.872;9.226;2023-05-10T02:56:50;13.70;84.10
360;DHT22;168;48.872;9.226;2023-05-10T02:59:18;13.70;84.80
360;DHT22;168;48.872;9.226;2023-05-10T03:01:45;13.70;83.80
360;DHT22;168;48.872;9.226;2023-05-10T03:04:12;13.80;84.40
360;DHT22;168;48.872;9.226;2023-05-10T03:06:40;13.90;85.30
360;DHT22;168;48.872;9.226;2023-05-10T03:09:07;14.00;86.00
360;DHT22;168;48.872;9.226;2023-05-10T03:11:53;14.10;88.10
360;DHT22;168;48.872;9.226;2023-05-10T03:14:31;14.00;87.90
360;DHT22;168;48.872;9.226;2023-05-10T03:17:08;14.00;88.00
360;DHT22;168;48.872;9.226;2023-05-10T03:19:52;14.00;87.40
360;DHT22;168;48.872;9.226;2023-05-10T03:22:24;14.00;87.80
360;DHT22;168;48.872;9.226;2023-05-10T03:24:54;14.00;87.00
360;DHT22;168;48.872;9.226;2023-05-10T03:27:26;14.00;87.70
360;DHT22;168;48.872;9.226;2023-05-10T03:29:55;14.10;87.80
360;DHT22;168;48.872;9.226;2023-05-10T03:32:22;14.10;88.20
360;DHT22;168;48.872;9.226;2023-05-10T03:34:50;14.10;87.70
360;DHT22;168;48.872;9.226;2023-05-10T03:37:17;14.10;87.80
360;DHT22;168;48.872;9.226;2023-05-10T03:39:44;14.20;89.20
360;DHT22;168;48.872;9.226;2023-05-10T03:42:12;14.20;89.90
360;DHT22;168;48.872;9.226;2023-05-10T03:44:40;14.20;89.50
360;DHT22;168;48.872;9.226;2023-05-10T03:47:08;14.20;90.10
360;DHT22;168;48.872;9.226;2023-05-10T03:49:35;14.20;89.80
360;DHT22;168;48.872;9.226;2023-05-10T03:52:02;14.20;89.10
360;DHT22;168;48.872;9.226;2023-05-10T03:54:31;14.10;87.80
360;DHT22;168;48.872;9.226;2023-05-10T03:56:58;14.10;88.20
360;DHT22;168;48.872;9.226;2023-05-10T03:59:26;14.10;88.10
360;DHT22;168;48.872;9.226;2023-05-10T04:01:55;14.10;88.00
360;DHT22;168;48.872;9.226;2023-05-10T04:04:22;14.20;88.20
360;DHT22;168;48.872;9.226;2023-05-10T04:06:49;14.10;87.20
360;DHT22;168;48.872;9.226;2023-05-10T04:09:17;14.10;86.20
360;DHT22;168;48.872;9.226;2023-05-10T04:11:44;14.10;86.50
360;DHT22;168;48.872;9.226;2023-05-10T04:14:12;14.10;86.70
360;DHT22;168;48.872;9.226;2023-05-10T04:16:39;14.20;87.30
360;DHT22;168;48.872;9.226;2023-05-10T04:19:08;14.20;88.60
360;DHT22;168;48.872;9.226;2023-05-10T04:21:36;14.20;87.80
360;DHT22;168;48.872;9.226;2023-05-10T04:24:04;14.20;88.80
360;DHT22;168;48.872;9.226;2023-05-10T04:26:31;14.20;88.70
360;DHT22;168;48.872;9.226;2023-05-10T04:28:59;14.20;89.10
360;DHT22;168;48.872;9.226;2023-05-10T04:31:27;14.20;88.50
360;DHT22;168;48.872;9.226;2023-05-10T04:33:55;14.20;89.60
360;DHT22;168;48.872;9.226;2023-05-10T04:36:24;14.20;89.90
360;DHT22;168;48.872;9.226;2023-05-10T04:38:52;14.20;89.30
360;DHT22;168;48.872;9.226;2023-05-10T04:41:20;14.30;90.30
360;DHT22;168;48.872;9.226;2023-05-10T04:43:48;14.30;90.00
360;DHT22;168;48.872;9.226;2023-05-10T04:46:16;14.40;90.00
360;DHT22;168;48.872;9.226;2023-05-10T04:48:43;14.30;89.50
360;DHT22;168;48.872;9.226;2023-05-10T04:51:11;14.40;92.00
360;DHT22;168;48.872;9.226;2023-05-10T04:53:40;14.50;92.10
360;DHT22;168;48.872;9.226;2023-05-10T04:56:07;14.50;92.10
360;DHT22;168;48.872;9.226;2023-05-10T04:58:35;14.50;92.50
360;DHT22;168;48.872;9.226;2023-05-10T05:01:05;14.50;92.50
360;DHT22;168;48.872;9.226;2023-05-10T05:03:34;14.50;92.10
360;DHT22;168;48.872;9.226;2023-05-10T05:06:01;14.50;92.20
360;DHT22;168;48.872;9.226;2023-05-10T05:08:32;14.50;92.10
360;DHT22;168;48.872;9.226;2023-05-10T05:11:01;14.50;92.20
360;DHT22;168;48.872;9.226;2023-05-10T05:13:30;14.60;93.00
360;DHT22;168;48.872;9.226;2023-05-10T05:16:00;14.60;92.00
360;DHT22;168;48.872;9.226;2023-05-10T05:18:28;14.70;92.70
360;DHT22;168;48.872;9.226;2023-05-10T05:20:56;14.70;92.70
360;DHT22;168;48.872;9.226;2023-05-10T05:23:23;14.80;92.50
360;DHT22;168;48.872;9.226;2023-05-10T05:25:54;14.90;93.30
360;DHT22;168;48.872;9.226;2023-05-10T05:28:26;15.00;93.40
360;DHT22;168;48.872;9.226;2023-05-10T05:31:01;15.00;93.10
360;DHT22;168;48.872;9.226;2023-05-10T05:33:56;15.10;93.90
360;DHT22;168;48.872;9.226;2023-05-10T05:36:23;15.10;93.60
360;DHT22;168;48.872;9.226;2023-05-10T05:38:51;15.20;94.00
360;DHT22;168;48.872;9.226;2023-05-10T05:41:18;15.30;93.80
360;DHT22;168;48.872;9.226;2023-05-10T05:43:48;15.30;94.70
360;DHT22;168;48.872;9.226;2023-05-10T05:46:18;15.30;94.50
360;DHT22;168;48.872;9.226;2023-05-10T05:50:11;15.50;95.10
360;DHT22;168;48.872;9.226;2023-05-10T05:52:51;15.50;94.80
360;DHT22;168;48.872;9.226;2023-05-10T05:55:18;15.50;95.30
360;DHT22;168;48.872;9.226;2023-05-10T05:57:45;15.60;95.50
360;DHT22;168;48.872;9.226;2023-05-10T06:00:15;15.70;95.40
360;DHT22;168;48.872;9.226;2023-05-10T06:02:42;15.60;95.50
360;DHT22;168;48.872;9.226;2023-05-10T06:05:10;15.60;95.70
360;DHT22;168;48.872;9.226;2023-05-10T06:07:37;15.50;95.80
360;DHT22;168;48.872;9.226;2023-05-10T06:10:07;15.50;95.00
360;DHT22;168;48.872;9.226;2023-05-10T06:12:37;15.50;95.60
360;DHT22;168;48.872;9.226;2023-05-10T06:15:05;15.60;95.40
360;DHT22;168;48.872;9.226;2023-05-10T06:17:34;15.60;95.60
360;DHT22;168;48.872;9.226;2023-05-10T06:20:01;15.70;95.60
360;DHT22;168;48.872;9.226;2023-05-10T06:22:29;15.70;95.80
360;DHT22;168;48.872;9.226;2023-05-10T06:24:56;15.80;95.90
360;DHT22;168;48.872;9.226;2023-05-10T06:27:23;15.60;95.90
360;DHT22;168;48.872;9.226;2023-05-10T06:29:51;15.60;95.70
360;DHT22;168;48.872;9.226;2023-05-10T06:32:18;15.60;95.90
360;DHT22;168;48.872;9.226;2023-05-10T06:34:47;15.70;95.90
360;DHT22;168;48.872;9.226;2023-05-10T06:37:14;15.70;95.70
360;DHT22;168;48.872;9.226;2023-05-10T06:39:41;15.80;96.10
360;DHT22;168;48.872;9.226;2023-05-10T06:42:09;15.80;95.90
360;DHT22;168;48.872;9.226;2023-05-10T06:44:36;15.80;96.10
360;DHT22;168;48.872;9.226;2023-05-10T06:47:03;15.80;96.00
360;DHT22;168;48.872;9.226;2023-05-10T06:49:31;15.90;96.10
360;DHT22;168;48.872;9.226;2023-05-10T06:52:00;15.90;96.00
360;DHT22;168;48.872;9.226;2023-05-10T06:54:27;16.10;96.30
360;DHT22;168;48.872;9.226;2023-05-10T06:56:55;16.40;96.10
360;DHT22;168;48.872;9.226;2023-05-10T06:59:22;16.60;96.30
360;DHT22;168;48.872;9.226;2023-05-10T07:01:49;16.70;95.90
360;DHT22;168;48.872;9.226;2023-05-10T07:04:17;16.80;96.00
360;DHT22;168;48.872;9.226;2023-05-10T07:06:44;16.90;95.90
360;DHT22;168;48.872;9.226;2023-05-10T07:09:13;17.00;96.10
360;DHT22;168;48.872;9.226;2023-05-10T07:11:40;17.20;95.70
360;DHT22;168;48.872;9.226;2023-05-10T07:14:08;17.30;95.00
360;DHT22;168;48.872;9.226;2023-05-10T07:16:35;17.40;94.70
360;DHT22;168;48.872;9.226;2023-05-10T07:19:02;17.40;94.90
360;DHT22;168;48.872;9.226;2023-05-10T07:21:31;17.40;95.10
360;DHT22;168;48.872;9.226;2023-05-10T07:23:58;17.60;95.10
360;DHT22;168;48.872;9.226;2023-05-10T07:26:28;17.60;94.90
360;DHT22;168;48.872;9.226;2023-05-10T07:28:55;17.60;95.20
360;DHT22;168;48.872;9.226;2023-05-10T07:31:23;17.60;94.60
360;DHT22;168;48.872;9.226;2023-05-10T07:33:50;17.70;95.10
360;DHT22;168;48.872;9.226;2023-05-10T07:36:18;17.90;94.50
360;DHT22;168;48.872;9.226;2023-05-10T07:38:45;18.00;93.50
360;DHT22;168;48.872;9.226;2023-05-10T07:41:12;17.90;94.10
360;DHT22;168;48.872;9.226;2023-05-10T07:43:41;17.90;92.30
360;DHT22;168;48.872;9.226;2023-05-10T07:46:08;17.70;93.00
360;DHT22;168;48.872;9.226;2023-05-10T07:48:36;17.70;93.10
360;DHT22;168;48.872;9.226;2023-05-10T07:51:04;17.70;93.00
360;DHT22;168;48.872;9.226;2023-05-10T07:53:32;17.70;93.20
360;DHT22;168;48.872;9.226;2023-05-10T07:56:18;17.70;92.80
360;DHT22;168;48.872;9.226;2023-05-10T07:58:47;17.70;92.70
360;DHT22;168;48.872;9.226;2023-05-10T08:01:15;17.60;92.70
360;DHT22;168;48.872;9.226;2023-05-10T08:03:42;17.60;91.40
360;DHT22;168;48.872;9.226;2023-05-10T08:06:10;17.60;92.10
360;DHT22;168;48.872;9.226;2023-05-10T08:08:37;17.40;92.00
360;DHT22;168;48.872;9.226;2023-05-10T08:11:04;17.20;91.80
360;DHT22;168;48.872;9.226;2023-05-10T08:13:32;17.00;92.70
360;DHT22;168;48.872;9.226;2023-05-10T08:16:01;17.00;92.80
360;DHT22;168;48.872;9.226;2023-05-10T08:18:28;17.00;93.30
360;DHT22;168;48.872;9.226;2023-05-10T08:20:56;17.00;93.00
360;DHT22;168;48.872;9.226;2023-05-10T08:23:23;16.90;92.80
360;DHT22;168;48.872;9.226;2023-05-10T08:25:50;16.70;92.50
360;DHT22;168;48.872;9.226;2023-05-10T08:28:18;16.60;93.50
360;DHT22;168;48.872;9.226;2023-05-10T08:30:45;16.60;93.70
360;DHT22;168;48.872;9.226;2023-05-10T08:33:14;16.70;93.70
360;DHT22;168;48.872;9.226;2023-05-10T08:35:41;16.80;93.50
360;DHT22;168;48.872;9.226;2023-05-10T08:38:08;16.80;93.10
360;DHT22;168;48.872;9.226;2023-05-10T08:40:37;16.90;92.90
360;DHT22;168;48.872;9.226;2023-05-10T08:43:06;16.90;92.00
360;DHT22;168;48.872;9.226;2023-05-10T08:45:37;16.80;92.90
360;DHT22;168;48.872;9.226;2023-05-10T08:48:06;16.80;92.90
360;DHT22;168;48.872;9.226;2023-05-10T08:50:36;16.70;92.90
360;DHT22;168;48.872;9.226;2023-05-10T08:53:05;16.70;93.10
360;DHT22;168;48.872;9.226;2023-05-10T08:55:33;16.70;93.50
360;DHT22;168;48.872;9.226;2023-05-10T08:58:02;16.80;93.10
360;DHT22;168;48.872;9.226;2023-05-10T09:00:30;16.80;92.30
360;DHT22;168;48.872;9.226;2023-05-10T09:02:58;16.80;92.80
360;DHT22;168;48.872;9.226;2023-05-10T09:05:37;16.80;92.30
360;DHT22;168;48.872;9.226;2023-05-10T09:08:05;16.90;91.50
360;DHT22;168;48.872;9.226;2023-05-10T09:10:33;17.00;91.10
360;DHT22;168;48.872;9.226;2023-05-10T09:13:01;17.10;90.90
360;DHT22;168;48.872;9.226;2023-05-10T09:15:28;17.20;89.90
360;DHT22;168;48.872;9.226;2023-05-10T09:17:56;17.30;89.70
360;DHT22;168;48.872;9.226;2023-05-10T09:20:25;17.50;88.00
360;DHT22;168;48.872;9.226;2023-05-10T09:22:54;17.60;88.10
360;DHT22;168;48.872;9.226;2023-05-10T09:25:21;17.60;88.40
360;DHT22;168;48.872;9.226;2023-05-10T09:27:48;17.50;87.30
360;DHT22;168;48.872;9.226;2023-05-10T09:30:17;17.30;87.60
360;DHT22;168;48.872;9.226;2023-05-10T09:32:45;17.20;89.00
360;DHT22;168;48.872;9.226;2023-05-10T09:35:14;17.30;89.00
360;DHT22;168;48.872;9.226;2023-05-10T09:37:43;17.40;89.30
360;DHT22;168;48.872;9.226;2023-05-10T09:40:14;17.30;89.40
360;DHT22;168;48.872;9.226;2023-05-10T09:42:43;17.40;89.60
360;DHT22;168;48.872;9.226;2023-05-10T09:45:18;17.50;89.00
360;DHT22;168;48.872;9.226;2023-05-10T09:47:46;17.70;87.20
360;DHT22;168;48.872;9.226;2023-05-10T09:50:14;17.70;87.60
360;DHT22;168;48.872;9.226;2023-05-10T09:52:49;17.70;87.60
360;DHT22;168;48.872;9.226;2023-05-10T09:55:20;17.60;88.00
360;DHT22;168;48.872;9.226;2023-05-10T09:57:58;17.70;88.40
360;DHT22;168;48.872;9.226;2023-05-10T10:00:27;17.70;89.00
360;DHT22;168;48.872;9.226;2023-05-10T10:02:56;17.90;88.60
360;DHT22;168;48.872;9.226;2023-05-10T10:05:34;17.90;84.10
360;DHT22;168;48.872;9.226;2023-05-10T10:08:07;17.60;87.40
360;DHT22;168;48.872;9.226;2023-05-10T10:10:40;17.30;88.20
360;DHT22;168;48.872;9.226;2023-05-10T10:13:10;17.10;89.60
360;DHT22;168;48.872;9.226;2023-05-10T10:15:39;16.90;89.80
360;DHT22;168;48.872;9.226;2023-05-10T10:18:08;16.90;90.20
360;DHT22;168;48.872;9.226;2023-05-10T10:20:39;17.00;90.00
360;DHT22;168;48.872;9.226;2023-05-10T10:23:08;17.00;89.90
360;DHT22;168;48.872;9.226;2023-05-10T10:25:35;16.90;90.50
360;DHT22;168;48.872;9.226;2023-05-10T10:28:15;16.80;91.10
360;DHT22;168;48.872;9.226;2023-05-10T10:30:50;16.80;91.10
360;DHT22;168;48.872;9.226;2023-05-10T10:33:39;16.80;91.30
360;DHT22;168;48.872;9.226;2023-05-10T10:36:07;16.90;91.50
360;DHT22;168;48.872;9.226;2023-05-10T10:38:54;16.90;89.40
360;DHT22;168;48.872;9.226;2023-05-10T10:41:32;16.90;90.30
360;DHT22;168;48.872;9.226;2023-05-10T10:47:22;17.30;88.40
360;DHT22;168;48.872;9.226;2023-05-10T10:49:52;17.40;86.10
360;DHT22;168;48.872;9.226;2023-05-10T10:52:31;17.30;86.70
360;DHT22;168;48.872;9.226;2023-05-10T10:55:01;17.30;87.10
360;DHT22;168;48.872;9.226;2023-05-10T10:57:31;17.30;88.30
360;DHT22;168;48.872;9.226;2023-05-10T11:00:21;17.40;86.40
360;DHT22;168;48.872;9.226;2023-05-10T11:02:52;17.10;87.20
360;DHT22;168;48.872;9.226;2023-05-10T11:05:37;17.00;88.60
360;DHT22;168;48.872;9.226;2023-05-10T11:08:13;17.00;89.10
360;DHT22;168;48.872;9.226;2023-05-10T11:10:51;16.90;87.40
360;DHT22;168;48.872;9.226;2023-05-10T11:13:28;17.00;86.20
360;DHT22;168;48.872;9.226;2023-05-10T11:15:56;16.90;87.10
360;DHT22;168;48.872;9.226;2023-05-10T11:18:27;16.90;87.90
360;DHT22;168;48.872;9.226;2023-05-10T11:20:57;17.00;86.90
360;DHT22;168;48.872;9.226;2023-05-10T11:23:30;17.00;85.40
360;DHT22;168;48.872;9.226;2023-05-10T11:25:59;17.10;85.90
360;DHT22;168;48.872;9.226;2023-05-10T11:28:27;17.10;85.90
360;DHT22;168;48.872;9.226;2023-05-10T11:30:55;17.30;85.70
360;DHT22;168;48.872;9.226;2023-05-10T11:33:22;17.50;86.00
360;DHT22;168;48.872;9.226;2023-05-10T11:35:51;17.50;85.70
360;DHT22;168;48.872;9.226;2023-05-10T11:38:18;17.70;83.00
360;DHT22;168;48.872;9.226;2023-05-10T11:40:46;17.80;79.30
360;DHT22;168;48.872;9.226;2023-05-10T11:43:13;17.80;79.10
360;DHT22;168;48.872;9.226;2023-05-10T11:45:41;17.70;79.90
360;DHT22;168;48.872;9.226;2023-05-10T11:48:10;17.60;78.30
360;DHT22;168;48.872;9.226;2023-05-10T11:50:37;17.50;78.30
360;DHT22;168;48.872;9.226;2023-05-10T11:53:13;17.50;79.20
360;DHT22;168;48.872;9.226;2023-05-10T11:55:41;17.50;79.60
360;DHT22;168;48.872;9.226;2023-05-10T11:58:11;17.50;80.10
360;DHT22;168;48.872;9.226;2023-05-10T12:00:38;17.50;79.30
360;DHT22;168;48.872;9.226;2023-05-10T12:03:06;17.40;80.20
360;DHT22;168;48.872;9.226;2023-05-10T12:05:33;17.40;80.90
360;DHT22;168;48.872;9.226;2023-05-10T12:08:19;17.50;81.00
360;DHT22;168;48.872;9.226;2023-05-10T12:10:46;17.50;80.20
360;DHT22;168;48.872;9.226;2023-05-10T12:13:14;17.50;79.90
360;DHT22;168;48.872;9.226;2023-05-10T12:15:42;17.60;80.70
360;DHT22;168;48.872;9.226;2023-05-10T12:18:10;17.70;80.10
360;DHT22;168;48.872;9.226;2023-05-10T12:20:39;17.60;80.50
360;DHT22;168;48.872;9.226;2023-05-10T12:23:09;17.50;79.00
360;DHT22;168;48.872;9.226;2023-05-10T12:25:38;17.30;77.30
360;DHT22;168;48.872;9.226;2023-05-10T12:28:09;17.10;78.80
360;DHT22;168;48.872;9.226;2023-05-10T12:30:37;17.00;79.30
360;DHT22;168;48.872;9.226;2023-05-10T12:33:08;17.20;79.20
360;DHT22;168;48.872;9.226;2023-05-10T12:35:44;17.20;77.10
360;DHT22;168;48.872;9.226;2023-05-10T12:38:26;17.00;77.10
360;DHT22;168;48.872;9.226;2023-05-10T12:40:57;16.90;77.70
360;DHT22;168;48.872;9.226;2023-05-10T12:43:24;16.90;79.30
360;DHT22;168;48.872;9.226;2023-05-10T12:45:52;16.90;81.10
360;DHT22;168;48.872;9.226;2023-05-10T12:48:19;16.90;81.30
360;DHT22;168;48.872;9.226;2023-05-10T12:50:47;17.20;80.10
360;DHT22;168;48.872;9.226;2023-05-10T12:53:15;17.30;77.30
360;DHT22;168;48.872;9.226;2023-05-10T12:55:42;17.30;79.30
360;DHT22;168;48.872;9.226;2023-05-10T12:58:11;17.40;78.00
360;DHT22;168;48.872;9.226;2023-05-10T13:00:38;17.60;77.20
360;DHT22;168;48.872;9.226;2023-05-10T13:03:06;17.70;76.40
360;DHT22;168;48.872;9.226;2023-05-10T13:05:33;17.80;76.10
360;DHT22;168;48.872;9.226;2023-05-10T13:08:00;17.80;76.00
360;DHT22;168;48.872;9.226;2023-05-10T13:10:29;17.90;76.70
360;DHT22;168;48.872;9.226;2023-05-10T13:12:57;18.10;76.50
360;DHT22;168;48.872;9.226;2023-05-10T13:15:26;18.20;77.30
360;DHT22;168;48.872;9.226;2023-05-10T13:17:54;18.40;77.70
360;DHT22;168;48.872;9.226;2023-05-10T13:20:21;18.60;75.30
360;DHT22;168;48.872;9.226;2023-05-10T13:22:49;18.60;74.50
360;DHT22;168;48.872;9.226;2023-05-10T13:25:16;18.50;75.50
360;DHT22;168;48.872;9.226;2023-05-10T13:27:44;18.50;75.90
360;DHT22;168;48.872;9.226;2023-05-10T13:30:11;18.70;76.00
360;DHT22;168;48.872;9.226;2023-05-10T13:32:40;18.70;75.20
360;DHT22;168;48.872;9.226;2023-05-10T13:35:08;18.60;75.70
360;DHT22;168;48.872;9.226;2023-05-10T13:37:35;18.50;75.80
360;DHT22;168;48.872;9.226;2023-05-10T13:40:03;18.20;76.70
360;DHT22;168;48.872;9.226;2023-05-10T13:42:32;18.10;76.10
360;DHT22;168;48.872;9.226;2023-05-10T13:45:00;18.10;76.60
360;DHT22;168;48.872;9.226;2023-05-10T13:47:28;18.00;76.60
360;DHT22;168;48.872;9.226;2023-05-10T13:49:56;17.80;77.30
360;DHT22;168;48.872;9.226;2023-05-10T13:52:24;17.90;78.40
360;DHT22;168;48.872;9.226;2023-05-10T13:54:51;17.90;78.30
360;DHT22;168;48.872;9.226;2023-05-10T13:57:20;18.00;78.10
360;DHT22;168;48.872;9.226;2023-05-10T13:59:51;18.10;77.90
360;DHT22;168;48.872;9.226;2023-05-10T14:02:19;18.30;78.20
360;DHT22;168;48.872;9.226;2023-05-10T14:04:46;18.40;78.50
360;DHT22;168;48.872;9.226;2023-05-10T14:07:15;18.40;76.40
360;DHT22;168;48.872;9.226;2023-05-10T14:09:43;18.30;77.30
360;DHT22;168;48.872;9.226;2023-05-10T14:12:11;18.30;77.20
360;DHT22;168;48.872;9.226;2023-05-10T14:14:38;18.20;76.80
360;DHT22;168;48.872;9.226;2023-05-10T14:17:06;18.20;75.80
360;DHT22;168;48.872;9.226;2023-05-10T14:19:33;18.10;75.10
360;DHT22;168;48.872;9.226;2023-05-10T14:22:01;18.10;75.40
360;DHT22;168;48.872;9.226;2023-05-10T14:24:30;18.00;76.80
360;DHT22;168;48.872;9.226;2023-05-10T14:26:58;18.00;77.40
360;DHT22;168;48.872;9.226;2023-05-10T14:29:26;18.00;76.20
360;DHT22;168;48.872;9.226;2023-05-10T14:31:53;18.00;75.10
360;DHT22;168;48.872;9.226;2023-05-10T14:34:21;18.00;75.10
360;DHT22;168;48.872;9.226;2023-05-10T14:36:48;18.10;73.30
360;DHT22;168;48.872;9.226;2023-05-10T14:39:15;18.10;73.90
360;DHT22;168;48.872;9.226;2023-05-10T14:41:44;18.20;74.30
360;DHT22;168;48.872;9.226;2023-05-10T14:44:13;18.10;75.40
360;DHT22;168;48.872;9.226;2023-05-10T14:46:41;18.10;75.50
360;DHT22;168;48.872;9.226;2023-05-10T14:49:08;18.10;74.70
360;DHT22;168;48.872;9.226;2023-05-10T14:51:36;18.20;74.20
360;DHT22;168;48.872;9.226;2023-05-10T14:54:03;18.30;74.10
360;DHT22;168;48.872;9.226;2023-05-10T14:56:31;18.30;73.40
360;DHT22;168;48.872;9.226;2023-05-10T14:59:00;18.40;73.30
360;DHT22;168;48.872;9.226;2023-05-10T15:01:27;18.50;73.80
360;DHT22;168;48.872;9.226;2023-05-10T15:03:54;18.40;73.70
360;DHT22;168;48.872;9.226;2023-05-10T15:06:23;18.40;73.30
360;DHT22;168;48.872;9.226;2023-05-10T15:08:51;18.50;73.50
360;DHT22;168;48.872;9.226;2023-05-10T15:11:19;18.60;72.70
360;DHT22;168;48.872;9.226;2023-05-10T15:13:46;18.70;73.20
360;DHT22;168;48.872;9.226;2023-05-10T15:16:15;18.80;72.80
360;DHT22;168;48.872;9.226;2023-05-10T15:18:42;18.90;72.50
360;DHT22;168;48.872;9.226;2023-05-10T15:21:09;19.00;73.40
360;DHT22;168;48.872;9.226;2023-05-10T15:23:37;19.10;73.10
360;DHT22;168;48.872;9.226;2023-05-10T15:26:04;19.10;71.70
360;DHT22;168;48.872;9.226;2023-05-10T15:28:31;18.90;72.40
360;DHT22;168;48.872;9.226;2023-05-10T15:30:59;18.70;72.70
360;DHT22;168;48.872;9.226;2023-05-10T15:33:28;18.70;72.90
360;DHT22;168;48.872;9.226;2023-05-10T15:35:55;18.80;72.30
360;DHT22;168;48.872;9.226;2023-05-10T15:38:23;18.80;72.90
360;DHT22;168;48.872;9.226;2023-05-10T15:40:50;18.80;73.20
360;DHT22;168;48.872;9.226;2023-05-10T15:43:18;18.90;72.60
360;DHT22;168;48.872;9.226;2023-05-10T15:45:46;19.00;72.60
360;DHT22;168;48.872;9.226;2023-05-10T15:48:13;19.00;70.70
360;DHT22;168;48.872;9.226;2023-05-10T15:50:43;18.90;71.30
360;DHT22;168;48.872;9.226;2023-05-10T15:53:18;18.80;70.00
360;DHT22;168;48.872;9.226;2023-05-10T15:55:45;18.80;70.90
360;DHT22;168;48.872;9.226;2023-05-10T15:58:13;18.70;72.40
360;DHT22;168;48.872;9.226;2023-05-10T16:00:40;18.70;71.10
360;DHT22;168;48.872;9.226;2023-05-10T16:03:08;18.70;70.70
360;DHT22;168;48.872;9.226;2023-05-10T16:05:35;18.60;71.00
360;DHT22;168;48.872;9.226;2023-05-10T16:08:04;18.60;69.50
360;DHT22;168;48.872;9.226;2023-05-10T16:10:32;18.50;70.60
360;DHT22;168;48.872;9.226;2023-05-10T16:12:59;18.50;70.70
360;DHT22;168;48.872;9.226;2023-05-10T16:15:27;18.60;70.30
360;DHT22;168;48.872;9.226;2023-05-10T16:17:54;18.50;69.80
360;DHT22;168;48.872;9.226;2023-05-10T16:20:22;18.50;70.10
360;DHT22;168;48.872;9.226;2023-05-10T16:22:50;18.30;71.00
360;DHT22;168;48.872;9.226;2023-05-10T16:25:18;18.30;71.00
360;DHT22;168;48.872;9.226;2023-05-10T16:27:46;18.20;71.30
360;DHT22;168;48.872;9.226;2023-05-10T16:30:13;18.20;71.20
360;DHT22;168;48.872;9.226;2023-05-10T16:32:40;18.10;71.50
360;DHT22;168;48.872;9.226;2023-05-10T16:35:08;18.00;72.20
360;DHT22;168;48.872;9.226;2023-05-10T16:37:35;18.00;73.00
360;DHT22;168;48.872;9.226;2023-05-10T16:40:04;18.00;73.50
360;DHT22;168;48.872;9.226;2023-05-10T16:42:33;18.10;73.60
360;DHT22;168;48.872;9.226;2023-05-10T16:45:00;18.10;72.70
360;DHT22;168;48.872;9.226;2023-05-10T16:47:32;18.10;72.60
360;DHT22;168;48.872;9.226;2023-05-10T16:50:00;18.00;73.70
360;DHT22;168;48.872;9.226;2023-05-10T16:52:28;17.90;73.80
360;DHT22;168;48.872;9.226;2023-05-10T16:54:55;18.10;74.00